Time;durP1;ratioP1;P1;durP2;ratioP2;P2;SDS_P1;SDS_P2;PMS_P1;PMS_P2;Temp;Humidity;BMP_temperature;BMP_pressure;BME280_temperature;BME280_humidity;BME280_pressure;Samples;Min_cycle;Max_cycle;Signal;HPM_P1;HPM_P2
2022/06/02 00:01:24;;;;;;;4.78;1.50;;;;;;;21.81;37.73;98628.37;4487693;32;19982;-80
2022/06/02 00:04:01;;;;;;;5.45;1.50;;;;;;;21.75;37.54;98620.94;4482848;32;20092;-80
2022/06/02 00:06:44;;;;;;;2.97;1.43;;;;;;;21.76;37.38;98619.97;4487150;32;20142;-79
2022/06/02 00:09:26;;;;;;;3.20;1.42;;;;;;;21.75;37.33;98613.78;4486773;32;20243;-79
2022/06/02 00:12:04;;;;;;;5.18;1.37;;;;;;;21.74;37.14;98624.66;4473119;32;20136;-79
2022/06/02 00:14:36;;;;;;;4.12;1.40;;;;;;;21.74;37.02;98624.66;4487374;32;20091;-79
2022/06/02 00:17:35;;;;;;;3.55;1.50;;;;;;;21.74;36.85;98616.59;4473047;32;20088;-80
2022/06/02 00:20:21;;;;;;;4.75;1.50;;;;;;;21.74;36.70;98613.94;4473141;32;20088;-79
2022/06/02 00:22:53;;;;;;;3.83;1.60;;;;;;;21.68;36.75;98610.03;4473012;32;20076;-79
2022/06/02 00:26:00;;;;;;;3.10;1.48;;;;;;;21.73;36.66;98613.09;4487113;32;20088;-80
2022/06/02 00:28:37;;;;;;;4.32;1.52;;;;;;;21.72;36.69;98614.09;4484286;32;20110;-79
2022/06/02 00:31:36;;;;;;;4.60;1.60;;;;;;;21.73;36.73;98610.41;4473000;32;20084;-79
2022/06/02 00:34:22;;;;;;;4.45;1.62;;;;;;;21.67;36.79;98615.56;4422770;32;20217;-80
2022/06/02 00:37:00;;;;;;;4.22;1.60;;;;;;;21.64;36.87;98616.72;4409975;32;20133;-79
2022/06/02 00:39:27;;;;;;;5.28;1.40;;;;;;;21.73;36.66;98605.06;4422850;32;20153;-80
2022/06/02 00:41:52;;;;;;;4.22;1.60;;;;;;;21.64;36.89;98603.31;4410163;32;20457;-79
2022/06/02 00:44:27;;;;;;;4.03;1.50;;;;;;;21.68;36.93;98595.81;4422781;32;20106;-79
2022/06/02 00:46:59;;;;;;;3.50;1.50;;;;;;;21.72;36.97;98594.47;4422753;32;20101;-79
2022/06/02 00:49:42;;;;;;;6.68;1.42;;;;;;;21.68;37.13;98599.31;4422888;32;20105;-79
2022/06/02 00:52:13;;;;;;;3.50;1.40;;;;;;;21.68;37.23;98593.97;4410187;32;20098;-78
2022/06/02 00:57:52;;;;;;;5.40;1.67;;;;;;;21.73;37.31;98593.47;4422760;32;20487;-80
2022/06/02 01:00:20;;;;;;;4.28;1.60;;;;;;;21.73;37.42;98596.16;4414775;32;20125;-79
2022/06/02 01:03:08;;;;;;;4.80;1.58;;;;;;;21.75;37.49;98596.81;4422621;32;20129;-79
2022/06/02 01:05:52;;;;;;;6.15;1.52;;;;;;;21.78;37.68;98599.19;4409856;32;20151;-80
2022/06/02 01:08:17;;;;;;;4.87;1.67;;;;;;;21.86;37.61;98601.91;4409754;32;20412;-80
2022/06/02 01:10:51;;;;;;;6.85;1.80;;;;;;;21.87;37.49;98600.94;4463102;32;20134;-80
2022/06/02 01:13:46;;;;;;;4.70;1.60;;;;;;;21.91;37.52;98596.09;4486825;32;20516;-79
2022/06/02 01:16:35;;;;;;;4.93;1.92;;;;;;;21.96;37.45;98588.38;4486880;32;20085;-79
2022/06/02 01:19:04;;;;;;;4.05;1.60;;;;;;;22.01;37.36;98586.06;4486603;32;20085;-80
2022/06/02 01:22:00;;;;;;;4.75;1.60;;;;;;;22.11;37.19;98586.75;4485533;32;20088;-80
2022/06/02 01:24:44;;;;;;;4.93;1.95;;;;;;;22.13;37.18;98584.75;4472545;32;20092;-80
2022/06/02 01:27:10;;;;;;;4.32;1.45;;;;;;;22.17;37.12;98582.59;4486623;32;20099;-79
2022/06/02 01:30:06;;;;;;;4.30;1.75;;;;;;;22.20;37.13;98579.59;4486494;32;20096;-79
2022/06/02 01:32:44;;;;;;;3.83;1.60;;;;;;;22.28;37.06;98570.75;4486611;32;20210;-80
2022/06/02 01:35:19;;;;;;;3.55;1.60;;;;;;;22.30;37.02;98566.91;4485482;32;20088;-80
2022/06/02 01:37:51;;;;;;;7.47;1.90;;;;;;;22.36;36.88;98566.22;4472744;32;20155;-80
2022/06/02 01:40:35;;;;;;;4.28;1.80;;;;;;;22.37;36.88;98567.09;4486620;32;20115;-80
2022/06/02 01:43:06;;;;;;;5.50;1.70;;;;;;;22.35;37.12;98564.56;4485483;32;20422;-80
2022/06/02 01:45:46;;;;;;;3.35;1.50;;;;;;;22.36;36.99;98568.91;4486462;32;20131;-79
2022/06/02 01:48:24;;;;;;;5.97;1.70;;;;;;;22.34;37.11;98568.25;4486366;32;20146;-79
2022/06/02 01:50:52;;;;;;;6.07;1.62;;;;;;;22.31;37.02;98570.41;4472093;32;20156;-79
2022/06/02 01:53:21;;;;;;;4.37;1.70;;;;;;;22.30;37.81;98577.63;4486403;32;20122;-80
2022/06/02 01:56:08;;;;;;;5.93;1.70;;;;;;;22.28;38.21;98584.19;4486291;32;20363;-79
2022/06/02 01:58:49;;;;;;;3.92;1.60;;;;;;;22.19;38.69;98577.91;4486325;32;20471;-79
2022/06/02 02:01:46;;;;;;;3.97;1.50;;;;;;;22.24;38.17;98572.91;4486245;32;20113;-80
2022/06/02 02:04:31;;;;;;;4.97;1.80;;;;;;;22.32;38.25;98554.16;4484987;32;20100;-79
2022/06/02 02:07:00;;;;;;;3.15;1.40;;;;;;;22.36;38.42;98568.09;4486003;32;20092;-79
2022/06/02 02:09:40;;;;;;;3.95;1.83;;;;;;;22.35;38.57;98564.56;4486005;32;20111;-79
2022/06/02 02:12:14;;;;;;;5.53;1.60;;;;;;;22.41;38.59;98567.59;4471714;32;20108;-80
2022/06/02 02:14:42;;;;;;;3.95;1.55;;;;;;;22.37;38.55;98570.63;4471947;32;20096;-79
2022/06/02 02:17:26;;;;;;;3.80;1.70;;;;;;;22.38;38.55;98561.53;4486107;32;20462;-79
2022/06/02 02:20:10;;;;;;;3.55;1.48;;;;;;;22.43;38.73;98563.75;4486152;32;20137;-80
2022/06/02 02:23:06;;;;;;;5.03;1.52;;;;;;;22.41;38.70;98564.91;4471611;32;20213;-80
2022/06/02 02:25:37;;;;;;;4.37;1.58;;;;;;;22.44;38.79;98567.25;4485805;32;20205;-81
2022/06/02 02:28:08;;;;;;;3.42;1.67;;;;;;;22.46;38.71;98567.94;4485856;32;20085;-79
2022/06/02 02:30:46;;;;;;;4.93;1.80;;;;;;;22.47;38.62;98567.78;4471636;32;20081;-79
2022/06/02 02:33:14;;;;;;;4.12;1.70;;;;;;;22.50;38.75;98580.88;4486998;32;20568;-79
2022/06/02 02:35:54;;;;;;;7.07;1.87;;;;;;;22.51;38.81;98582.53;4488007;32;20148;-79
2022/06/02 02:39:00;;;;;;;4.53;1.60;;;;;;;22.52;38.65;98592.28;4473877;32;20607;-79
2022/06/02 02:41:34;;;;;;;4.12;1.65;;;;;;;22.52;38.53;98603.03;4471274;32;20077;-80
2022/06/02 02:44:11;;;;;;;3.97;1.70;;;;;;;22.57;38.58;98611.41;4487930;32;20089;-80
2022/06/02 02:46:54;;;;;;;5.03;1.50;;;;;;;22.58;39.34;98626.53;4487963;32;20127;-79
2022/06/02 02:49:26;;;;;;;5.90;1.60;;;;;;;22.60;39.71;98620.13;4473641;32;20447;-79
2022/06/02 02:52:00;;;;;;;4.03;1.60;;;;;;;22.59;40.05;98627.38;4473819;32;20443;-79
2022/06/02 02:54:37;;;;;;;4.10;1.60;;;;;;;22.62;40.68;98631.56;4487945;32;20148;-79
2022/06/02 02:57:08;;;;;;;4.43;1.70;;;;;;;22.66;41.59;98646.34;4460602;32;20528;-79
2022/06/02 02:59:43;;;;;;;3.62;1.50;;;;;;;22.63;41.75;98652.87;4487902;32;20383;-79
2022/06/02 03:02:22;;;;;;;4.90;1.75;;;;;;;22.47;40.39;98661.72;4487752;32;20107;-79
2022/06/02 03:04:53;;;;;;;4.72;1.70;;;;;;;22.59;40.74;98675.69;4487864;32;20116;-80
2022/06/02 03:07:19;;;;;;;6.22;1.67;;;;;;;22.29;41.42;98682.44;4487500;32;20148;-80
2022/06/02 03:09:56;;;;;;;4.30;1.87;;;;;;;22.30;42.19;98678.78;4460362;32;20092;-79
2022/06/02 03:12:41;;;;;;;5.43;2.00;;;;;;;21.79;43.32;98678.66;4487740;32;20189;-80
2022/06/02 03:15:38;;;;;;;6.15;2.00;;;;;;;22.22;43.42;98692.13;4487764;32;20396;-80
2022/06/02 03:18:42;;;;;;;5.93;2.30;;;;;;;22.06;44.52;98690.19;4487716;32;20096;-80
2022/06/02 03:21:10;;;;;;;7.43;2.50;;;;;;;21.86;45.21;98702.97;4423511;32;20117;-79
2022/06/02 03:24:01;;;;;;;7.87;2.53;;;;;;;21.75;46.07;98709.44;4423251;32;20140;-79
2022/06/02 03:26:26;;;;;;;7.72;2.50;;;;;;;21.63;46.62;98724.94;4423202;32;20167;-79
2022/06/02 03:29:10;;;;;;;5.82;2.30;;;;;;;21.18;48.79;98720.50;4423244;32;20125;-80
2022/06/02 03:31:40;;;;;;;7.28;2.67;;;;;;;21.35;48.58;98717.00;4423248;32;20101;-79
2022/06/02 03:34:30;;;;;;;7.68;2.90;;;;;;;21.29;49.38;98722.13;4423320;32;20351;-79
2022/06/02 03:37:01;;;;;;;9.57;3.20;;;;;;;21.24;50.68;98711.03;4410475;32;20106;-78
2022/06/02 03:39:33;;;;;;;8.60;3.17;;;;;;;21.07;51.16;98713.53;4410617;32;20175;-79
2022/06/02 03:42:07;;;;;;;8.45;3.45;;;;;;;20.91;52.26;98719.56;4423196;32;20124;-79
2022/06/02 03:44:40;;;;;;;7.12;2.90;;;;;;;20.93;52.56;98720.25;4422379;32;20153;-79
2022/06/02 03:47:36;;;;;;;7.40;2.97;;;;;;;20.94;52.98;98719.28;4423105;32;20110;-79
2022/06/02 03:50:06;;;;;;;9.52;3.05;;;;;;;20.68;54.39;98710.28;4423188;32;20122;-79
2022/06/02 03:53:05;;;;;;;9.25;3.40;;;;;;;20.60;55.29;98700.34;4410379;32;20191;-79
2022/06/02 03:56:16;;;;;;;10.05;3.53;;;;;;;20.18;56.47;98693.59;4423172;32;20159;-79
2022/06/02 03:58:50;;;;;;;;;;;;;;;20.20;57.05;98677.41;4438687;32;20140;-79
2022/06/02 04:01:25;;;;;;;8.48;3.22;;;;;;;20.31;56.80;98676.38;4425640;32;20008;-80
2022/06/02 04:04:00;;;;;;;9.30;3.45;;;;;;;19.99;57.84;98667.78;4438521;32;20147;-79
2022/06/02 04:06:53;;;;;;;8.35;3.40;;;;;;;20.17;57.77;98669.69;4438151;32;20085;-79
2022/06/02 04:09:42;;;;;;;7.57;3.28;;;;;;;20.33;58.63;98666.38;4438318;32;20166;-79
2022/06/02 04:15:11;;;;;;;8.00;3.40;;;;;;;20.15;58.97;98672.50;4392592;32;20108;-79
2022/06/02 04:18:06;;;;;;;8.82;4.12;;;;;;;20.35;58.95;98685.78;4391378;32;20086;-80
2022/06/02 04:20:37;;;;;;;7.10;3.20;;;;;;;20.40;58.85;98675.50;4397970;32;20136;-80
2022/06/02 04:23:28;;;;;;;10.27;3.58;;;;;;;20.45;58.93;98672.34;4406256;32;20113;-80
2022/06/02 04:25:59;;;;;;;7.57;3.22;;;;;;;20.56;58.82;98681.03;4406200;32;20159;-79
2022/06/02 04:29:11;;;;;;;9.20;4.55;;;;;;;20.62;58.43;98690.31;4406349;32;20090;-82
2022/06/02 04:31:44;;;;;;;8.90;3.30;;;;;;;20.73;58.12;98697.31;4376254;32;21275;-80
2022/06/02 04:34:22;;;;;;;7.57;2.90;;;;;;;20.82;57.86;98691.03;4376711;32;20642;-80
2022/06/02 04:37:17;;;;;;;9.07;3.37;;;;;;;20.87;57.90;98694.09;4390863;32;20112;-80
2022/06/02 04:40:14;;;;;;;10.00;3.95;;;;;;;20.78;57.07;98693.19;4391010;32;20098;-81
2022/06/02 04:42:47;;;;;;;8.43;3.10;;;;;;;20.76;58.02;98691.63;4391354;32;20164;-80
2022/06/02 04:45:22;;;;;;;7.05;3.08;;;;;;;20.77;56.59;98691.50;4390888;32;20198;-81
2022/06/02 04:48:00;;;;;;;9.40;3.40;;;;;;;20.80;56.33;98701.03;4378286;32;20247;-80
2022/06/02 04:50:27;;;;;;;8.50;3.22;;;;;;;20.85;56.98;98703.28;4392506;32;20287;-81
2022/06/02 04:53:09;;;;;;;7.28;3.00;;;;;;;20.95;57.17;98710.25;4408552;32;20094;-80
2022/06/02 04:56:07;;;;;;;8.95;3.30;;;;;;;21.04;56.53;98694.28;4421141;32;20116;-80
2022/06/02 04:58:53;;;;;;;8.05;2.97;;;;;;;20.95;56.34;98706.72;4376120;32;20108;-80
2022/06/02 05:01:37;;;;;;;9.23;3.28;;;;;;;21.07;56.21;98700.16;4375794;32;20177;-80
2022/06/02 05:04:47;;;;;;;7.32;3.12;;;;;;;21.18;56.84;98696.41;4375764;32;20470;-82
2022/06/02 05:07:25;;;;;;;8.48;3.33;;;;;;;21.22;56.82;98700.47;4376399;32;20102;-82
2022/06/02 05:10:07;;;;;;;9.30;3.45;;;;;;;21.34;56.32;98698.37;4389799;32;20591;-82
2022/06/02 05:12:44;;;;;;;9.00;3.95;;;;;;;21.39;56.93;98702.28;4390038;32;20086;-82
2022/06/02 05:15:28;;;;;;;8.02;3.28;;;;;;;21.18;57.00;98715.16;4379594;32;20200;-83
2022/06/02 05:18:14;;;;;;;10.05;3.22;;;;;;;21.20;56.68;98713.16;4392056;32;20148;-82
2022/06/02 05:20:57;;;;;;;8.77;3.60;;;;;;;21.30;56.23;98723.81;4392090;32;20127;-82
2022/06/02 05:23:45;;;;;;;8.70;3.45;;;;;;;21.35;56.16;98722.34;4391476;32;20097;-82
2022/06/02 05:26:39;;;;;;;8.85;3.60;;;;;;;21.37;56.23;98722.19;4391671;32;20162;-81
2022/06/02 05:29:28;;;;;;;8.98;3.40;;;;;;;21.53;56.30;98726.88;4391961;32;20132;-80
2022/06/02 05:32:12;;;;;;;7.25;2.97;;;;;;;21.69;56.60;98727.03;4362128;32;20079;-81
2022/06/02 05:35:11;;;;;;;8.45;3.40;;;;;;;21.86;56.57;98732.47;4382176;32;20438;-84
2022/06/02 05:37:46;;;;;;;7.40;3.17;;;;;;;21.97;55.72;98737.59;4391973;32;20106;-81
2022/06/02 05:40:19;;;;;;;8.80;3.12;;;;;;;21.99;55.70;98744.47;4391768;32;20110;-82
2022/06/02 05:42:50;;;;;;;7.43;3.17;;;;;;;22.04;55.46;98743.16;4386063;32;20169;-81
2022/06/02 05:45:27;;;;;;;8.73;3.20;;;;;;;22.03;55.22;98742.31;4394116;32;20209;-81
2022/06/02 05:48:27;;;;;;;8.75;3.42;;;;;;;22.03;55.08;98745.00;4406709;32;20406;-80
2022/06/02 05:51:14;;;;;;;8.63;3.12;;;;;;;22.09;55.38;98740.84;4332779;33;20170;-82
2022/06/02 05:53:49;;;;;;;8.68;3.58;;;;;;;22.13;55.85;98728.81;4331181;33;20522;-82
2022/06/02 05:56:33;;;;;;;10.38;3.40;;;;;;;21.98;55.96;98736.59;4331332;33;20479;-81
2022/06/02 05:59:18;;;;;;;7.40;2.97;;;;;;;21.79;54.64;98726.94;4346613;33;20100;-81
2022/06/02 06:01:47;;;;;;;9.63;3.55;;;;;;;21.74;54.67;98739.94;4334332;33;20150;-82
2022/06/02 06:04:18;;;;;;;10.57;3.55;;;;;;;21.84;55.80;98740.69;4346687;33;20119;-80
2022/06/02 06:07:19;;;;;;;8.80;3.45;;;;;;;21.98;56.07;98745.50;4334156;33;20099;-81
2022/06/02 06:10:21;;;;;;;7.30;3.00;;;;;;;22.09;54.31;98739.00;4398266;32;20110;-81
2022/06/02 06:12:58;;;;;;;8.32;2.90;;;;;;;22.31;52.19;98740.34;4408308;32;20534;-80
2022/06/02 06:16:04;;;;;;;9.90;3.15;;;;;;;22.61;50.46;98745.34;4408512;32;20472;-80
2022/06/02 06:18:41;;;;;;;7.15;2.67;;;;;;;23.03;49.42;98741.81;4408106;32;20087;-81
2022/06/02 06:21:29;;;;;;;6.62;2.70;;;;;;;23.17;47.18;98747.38;4408033;32;20113;-81
2022/06/02 06:23:57;;;;;;;8.45;2.47;;;;;;;23.65;46.30;98747.59;4407867;32;20128;-81
2022/06/02 06:26:30;;;;;;;7.30;2.45;;;;;;;23.94;46.24;98749.78;4408190;32;20298;-81
2022/06/02 06:29:11;;;;;;;6.15;2.30;;;;;;;24.01;45.35;98749.09;4426068;32;20074;-81
2022/06/02 06:31:59;;;;;;;7.90;2.40;;;;;;;24.36;45.82;98753.22;4426307;32;20128;-81
2022/06/02 06:34:44;;;;;;;5.60;2.55;;;;;;;24.61;44.41;98754.00;4426322;32;20105;-82
2022/06/02 06:37:34;;;;;;;6.35;2.30;;;;;;;24.73;43.43;98755.28;4426117;32;20109;-81
2022/06/02 06:40:05;;;;;;;7.80;2.60;;;;;;;24.82;41.61;98758.81;4439106;32;20085;-81
2022/06/02 06:42:45;;;;;;;7.20;2.33;;;;;;;24.80;43.36;98771.63;4438959;32;20163;-81
2022/06/02 06:45:34;;;;;;;6.20;2.42;;;;;;;24.88;43.07;98776.13;4426170;32;20105;-81
2022/06/02 06:48:03;;;;;;;7.18;2.62;;;;;;;24.95;43.22;98771.69;4445805;32;20106;-81
2022/06/02 06:50:51;;;;;;;7.22;2.75;;;;;;;25.07;43.66;98772.13;4473529;32;20080;-81
2022/06/02 06:54:01;;;;;;;10.67;3.10;;;;;;;25.10;43.91;98786.09;4461443;32;20101;-81
2022/06/02 06:56:30;;;;;;;;;;;;;;;25.11;44.70;98784.22;4423960;32;20425;-82
2022/06/02 06:59:14;;;;;;;;;;;;;;;25.13;45.00;98782.22;4411433;32;20007;-81
2022/06/02 07:01:49;;;;;;;7.82;2.83;;;;;;;25.24;44.84;98783.69;4423696;32;20324;-81
2022/06/02 07:04:40;;;;;;;7.15;2.30;;;;;;;25.33;43.80;98788.03;4410742;32;20485;-81
2022/06/02 07:07:16;;;;;;;7.70;2.70;;;;;;;25.52;42.50;98786.72;4410200;32;20098;-81
2022/06/02 07:10:03;;;;;;;5.90;2.37;;;;;;;25.69;41.20;98787.41;4410655;32;20322;-82
2022/06/02 07:12:50;;;;;;;8.07;2.40;;;;;;;25.91;41.26;98791.16;4423705;32;20070;-81
2022/06/02 07:15:25;;;;;;;5.75;2.20;;;;;;;26.18;39.57;98792.41;4412153;32;20098;-81
2022/06/02 07:18:24;;;;;;;6.35;2.58;;;;;;;26.42;39.79;98788.59;4423402;32;20102;-81
2022/06/02 07:20:54;;;;;;;7.70;2.65;;;;;;;26.56;40.08;98791.50;4422731;32;20097;-81
2022/06/02 07:23:40;;;;;;;8.85;2.75;;;;;;;26.73;39.48;98798.41;4423393;32;20160;-82
2022/06/02 07:26:28;;;;;;;7.32;2.72;;;;;;;26.84;40.00;98789.84;4425734;32;20133;-81
2022/06/02 07:28:59;;;;;;;7.05;2.75;;;;;;;26.89;37.63;98794.69;4487791;32;20849;-81
2022/06/02 07:31:45;;;;;;;7.80;2.85;;;;;;;26.96;39.29;98782.09;4487670;32;20092;-82
2022/06/02 07:34:23;;;;;;;10.45;3.10;;;;;;;27.00;39.05;98782.53;4487562;32;20099;-82
2022/06/02 07:37:05;;;;;;;8.18;3.45;;;;;;;27.02;38.97;98781.34;4487679;32;20107;-81
2022/06/02 07:39:34;;;;;;;10.57;3.33;;;;;;;27.10;39.09;98776.84;4473440;32;20121;-81
2022/06/02 07:42:12;;;;;;;9.30;3.12;;;;;;;27.15;38.68;98782.53;4487498;32;20084;-82
2022/06/02 07:45:03;;;;;;;10.10;3.60;;;;;;;27.12;38.98;98785.59;4473268;32;20076;-81
2022/06/02 07:47:47;;;;;;;10.27;3.58;;;;;;;27.14;37.99;98795.22;4473124;32;20100;-81
2022/06/02 07:50:24;;;;;;;8.75;3.20;;;;;;;26.65;38.28;98793.94;4487500;32;20106;-81
2022/06/02 07:53:12;;;;;;;8.57;3.37;;;;;;;26.76;38.87;98791.81;4473443;32;20076;-82
2022/06/02 07:56:02;;;;;;;8.23;3.33;;;;;;;26.79;38.91;98796.84;4473115;32;20107;-82
2022/06/02 07:58:42;;;;;;;8.65;3.03;;;;;;;26.92;38.21;98788.06;4487460;32;20118;-82
2022/06/02 08:01:16;;;;;;;7.50;2.97;;;;;;;26.94;38.28;98789.53;4487540;32;20075;-81
2022/06/02 08:03:45;;;;;;;9.20;3.20;;;;;;;26.94;39.33;98794.94;4487339;32;20438;-81
2022/06/02 08:06:10;;;;;;;7.25;2.90;;;;;;;27.02;39.08;98796.72;4472751;32;20123;-81
2022/06/02 08:08:43;;;;;;;10.00;3.00;;;;;;;26.89;38.59;98797.41;4487480;32;20088;-82
2022/06/02 08:11:16;;;;;;;8.35;2.95;;;;;;;26.97;39.44;98799.16;4473249;32;20088;-81
2022/06/02 08:14:00;;;;;;;6.60;2.60;;;;;;;26.91;39.54;98798.06;4473236;32;20452;-81
2022/06/02 08:16:34;;;;;;;7.35;2.40;;;;;;;27.17;39.13;98805.63;4473222;32;20110;-81
2022/06/02 08:19:10;;;;;;;7.37;2.30;;;;;;;27.15;39.24;98802.28;4487335;32;20085;-81
2022/06/02 08:21:53;;;;;;;5.97;2.25;;;;;;;26.92;39.15;98804.28;4473229;32;20100;-81
2022/06/02 08:24:18;;;;;;;6.68;2.40;;;;;;;26.83;39.73;98806.25;4473289;32;20356;-81
2022/06/02 08:27:12;;;;;;;5.47;2.10;;;;;;;26.48;39.58;98806.81;4487136;32;20154;-82
2022/06/02 08:30:09;;;;;;;8.32;2.47;;;;;;;26.70;39.36;98803.38;4487207;32;20105;-82
2022/06/02 08:32:41;;;;;;;5.80;2.40;;;;;;;26.65;39.91;98799.34;4472939;32;20104;-81
2022/06/02 08:35:16;;;;;;;7.18;3.12;;;;;;;26.54;40.00;98805.22;4460066;32;20066;-81
2022/06/02 08:37:52;;;;;;;9.02;2.58;;;;;;;26.28;40.10;98811.06;4472972;32;20133;-81
2022/06/02 08:40:49;;;;;;;6.45;2.40;;;;;;;26.40;39.58;98814.13;4487232;32;20111;-82
2022/06/02 08:43:56;;;;;;;5.97;2.35;;;;;;;26.31;40.13;98810.69;4487202;32;20152;-82
2022/06/02 08:46:27;;;;;;;7.93;2.40;;;;;;;26.01;40.87;98802.53;4422648;32;20125;-82
2022/06/02 08:49:31;;;;;;;7.87;2.60;;;;;;;26.18;40.70;98808.62;4422671;32;20074;-82
2022/06/02 08:52:27;;;;;;;6.80;2.50;;;;;;;26.25;40.55;98817.66;4422772;32;20098;-82
2022/06/02 08:55:30;;;;;;;8.00;2.58;;;;;;;26.11;41.54;98820.34;4422970;32;20093;-81
2022/06/02 08:58:23;;;;;;;6.45;2.20;;;;;;;26.04;40.47;98812.97;4422771;32;20268;-82
2022/06/02 09:00:48;;;;;;;7.47;2.70;;;;;;;26.16;40.91;98816.06;4422736;32;20572;-81
2022/06/02 09:03:13;;;;;;;7.78;2.83;;;;;;;26.22;40.40;98817.19;4419233;32;107947;-81
2022/06/02 09:06:16;;;;;;;9.10;2.67;;;;;;;26.02;40.34;98814.16;4409564;32;20135;-81
2022/06/02 09:09:00;;;;;;;7.82;2.85;;;;;;;26.06;40.68;98810.94;4422716;32;20073;-82
2022/06/02 09:11:42;;;;;;;7.75;2.85;;;;;;;25.99;40.67;98819.94;4409783;32;20082;-82
2022/06/02 09:14:18;;;;;;;7.20;2.70;;;;;;;26.19;40.25;98822.94;4396964;32;20160;-81
2022/06/02 09:16:59;;;;;;;8.95;3.00;;;;;;;26.49;39.40;98831.94;4422687;32;20132;-81
2022/06/02 09:19:33;;;;;;;8.93;3.28;;;;;;;26.66;40.10;98836.19;4415951;32;20109;-81
2022/06/02 09:22:21;;;;;;;8.32;3.00;;;;;;;26.79;39.53;98830.13;4472545;32;20234;-82
2022/06/02 09:25:21;;;;;;;8.95;3.62;;;;;;;26.45;40.61;98839.56;4486211;32;20473;-82
2022/06/02 09:27:46;;;;;;;6.95;2.97;;;;;;;26.48;40.20;98841.91;4486704;32;20092;-81
2022/06/02 09:30:37;;;;;;;8.52;3.05;;;;;;;26.83;39.61;98835.97;4486730;32;20102;-81
2022/06/02 09:33:37;;;;;;;7.05;2.80;;;;;;;26.91;39.08;98838.59;4407251;32;20456;-81
2022/06/02 09:36:24;;;;;;;8.63;2.72;;;;;;;26.74;40.24;98848.75;4395310;32;20170;-82
2022/06/02 09:39:07;;;;;;;7.93;3.00;;;;;;;26.53;40.52;98846.75;4407002;32;20127;-82
2022/06/02 09:41:52;;;;;;;7.40;2.70;;;;;;;26.62;40.43;98834.03;4406407;32;20101;-82
2022/06/02 09:44:41;;;;;;;7.35;2.97;;;;;;;26.32;40.95;98846.62;4406912;32;20148;-82
2022/06/02 09:47:08;;;;;;;7.80;2.72;;;;;;;26.46;40.95;98846.66;4346800;33;20492;-81
2022/06/02 09:49:38;;;;;;;6.85;2.17;;;;;;;26.62;40.66;98845.69;4346734;33;20107;-81
2022/06/02 09:52:33;;;;;;;6.57;2.22;;;;;;;26.55;40.15;98841.16;4334680;33;20096;-81
2022/06/02 09:55:23;;;;;;;7.18;2.42;;;;;;;26.52;40.13;98839.69;4346793;33;20110;-81
2022/06/02 09:58:17;;;;;;;6.47;2.30;;;;;;;26.18;40.51;98835.63;4346712;33;20096;-81
2022/06/02 10:00:53;;;;;;;6.12;2.40;;;;;;;26.24;40.37;98840.28;4334672;33;20542;-81
2022/06/02 10:03:45;;;;;;;5.50;2.30;;;;;;;26.33;39.87;98832.97;4346661;33;20155;-81
2022/06/02 10:06:48;;;;;;;5.72;2.28;;;;;;;25.94;41.15;98834.00;4334197;33;20486;-81
2022/06/02 10:09:41;;;;;;;6.78;2.47;;;;;;;26.25;40.97;98830.31;4344735;32;20484;-81
2022/06/02 10:15:21;;;;;;;;;;;;;;;26.25;41.29;98835.72;4422230;32;20117;-81
2022/06/02 10:18:17;;;;;;;5.25;2.30;;;;;;;26.54;40.07;98834.06;4409081;32;19985;-82
2022/06/02 10:21:00;;;;;;;7.05;2.50;;;;;;;26.74;40.04;98824.44;4408861;32;20105;-82
2022/06/02 10:23:40;;;;;;;7.07;2.03;;;;;;;26.66;40.64;98824.53;4431668;32;20127;-81
2022/06/02 10:26:14;;;;;;;4.95;2.20;;;;;;;26.43;40.82;98832.69;4485816;32;20491;-82
2022/06/02 10:29:04;;;;;;;6.18;2.40;;;;;;;26.39;41.02;98825.97;4471570;32;20119;-82
2022/06/02 10:31:32;;;;;;;8.27;2.65;;;;;;;26.54;41.10;98826.84;4485737;32;20470;-82
2022/06/02 10:34:33;;;;;;;7.95;2.40;;;;;;;26.23;41.51;98832.34;4485810;32;20498;-81
2022/06/02 10:37:11;;;;;;;6.97;2.87;;;;;;;26.30;41.58;98838.72;4406134;32;20535;-82
2022/06/02 10:39:42;;;;;;;8.43;2.60;;;;;;;26.39;41.06;98825.97;4393588;32;20077;-82
2022/06/02 10:42:17;;;;;;;6.78;2.67;;;;;;;26.51;40.75;98824.50;4393442;32;20129;-81
2022/06/02 10:45:13;;;;;;;8.15;2.80;;;;;;;26.64;40.63;98826.59;4406188;32;20114;-82
2022/06/02 10:47:41;;;;;;;7.20;2.67;;;;;;;26.66;40.67;98835.34;4393368;32;20120;-82
2022/06/02 10:50:25;;;;;;;6.55;2.70;;;;;;;26.82;40.76;98831.59;4406112;32;20090;-81
2022/06/02 10:53:15;;;;;;;6.03;2.80;;;;;;;26.90;41.20;98828.78;4406135;32;20117;-82
2022/06/02 10:56:17;;;;;;;6.80;2.65;;;;;;;26.96;41.45;98836.16;4395860;32;20167;-81
2022/06/02 10:59:36;;;;;;;6.95;3.10;;;;;;;27.07;40.19;98835.66;4408408;32;20086;-82
2022/06/02 11:02:46;;;;;;;7.65;3.33;;;;;;;26.98;41.17;98841.38;4362838;32;20098;-81
2022/06/02 11:05:20;;;;;;;7.57;3.10;;;;;;;26.98;41.69;98827.84;4359652;32;20443;-81
2022/06/02 11:08:23;;;;;;;6.72;3.03;;;;;;;27.36;40.03;98836.69;4362838;32;20134;-82
2022/06/02 11:11:02;;;;;;;7.80;3.08;;;;;;;27.33;39.93;98834.34;4363280;32;20109;-82
2022/06/02 11:13:51;;;;;;;7.28;3.05;;;;;;;27.34;40.53;98821.69;4375321;32;20164;-81
2022/06/02 11:16:55;;;;;;;8.35;3.10;;;;;;;27.17;41.03;98826.44;4410787;32;20106;-82
2022/06/02 11:19:20;;;;;;;8.40;3.12;;;;;;;26.87;40.60;98823.78;4408247;32;20448;-81
2022/06/02 11:22:01;;;;;;;7.97;2.90;;;;;;;26.80;40.18;98822.84;4408088;32;20109;-81
2022/06/02 11:24:51;;;;;;;7.75;2.80;;;;;;;26.58;39.34;98824.56;4407935;32;20133;-82
2022/06/02 11:27:54;;;;;;;6.32;2.50;;;;;;;26.58;41.06;98829.97;4395334;32;20158;-81
2022/06/02 11:31:00;;;;;;;6.22;2.50;;;;;;;26.60;40.38;98834.22;4408256;32;20166;-82
2022/06/02 11:34:10;;;;;;;6.95;2.83;;;;;;;26.57;40.88;98825.63;4350411;32;20169;-81
2022/06/02 11:36:38;;;;;;;8.30;2.40;;;;;;;26.71;40.28;98832.06;4333275;33;20083;-82
2022/06/02 11:39:19;;;;;;;8.75;2.90;;;;;;;26.80;40.24;98826.38;4333144;33;20134;-82
2022/06/02 11:42:05;;;;;;;7.85;2.62;;;;;;;26.60;40.62;98825.28;4333295;33;20107;-81
2022/06/02 11:44:34;;;;;;;6.07;2.67;;;;;;;26.82;40.02;98827.03;4333171;33;20182;-81
2022/06/02 11:47:03;;;;;;;7.15;2.30;;;;;;;26.92;39.29;98836.72;4333041;33;20467;-81
2022/06/02 11:49:40;;;;;;;8.20;3.22;;;;;;;26.77;39.39;98840.28;4320989;33;20159;-81
2022/06/02 11:52:11;;;;;;;8.13;2.67;;;;;;;26.83;38.68;98844.06;4333244;33;20329;-82
2022/06/02 11:55:07;;;;;;;6.35;2.15;;;;;;;26.92;39.26;98831.31;4348734;32;20165;-82
2022/06/02 11:57:32;;;;;;;5.40;1.98;;;;;;;26.93;38.64;98835.72;4365162;32;20501;-81
2022/06/02 12:00:25;;;;;;;7.85;2.33;;;;;;;26.96;38.51;98846.97;4377703;32;20176;-82
2022/06/02 12:02:53;;;;;;;7.32;2.28;;;;;;;26.93;37.83;98839.25;4377742;32;20552;-82
2022/06/02 12:05:55;;;;;;;5.03;1.87;;;;;;;26.61;38.12;98835.06;4364211;32;20161;-82
2022/06/02 12:08:41;;;;;;;4.30;1.70;;;;;;;26.97;37.02;98839.72;4377804;32;20110;-81
2022/06/02 12:11:44;;;;;;;5.60;1.62;;;;;;;26.64;37.17;98838.22;4460449;32;20122;-81
2022/06/02 12:14:36;;;;;;;9.07;2.22;;;;;;;26.65;36.28;98844.47;4487695;32;20087;-82
2022/06/02 12:17:14;;;;;;;4.50;1.70;;;;;;;26.77;37.99;98847.53;4473362;32;20140;-81
2022/06/02 12:19:54;;;;;;;6.28;1.92;;;;;;;26.93;36.68;98843.81;4487456;32;20088;-81
2022/06/02 12:22:45;;;;;;;7.12;1.70;;;;;;;27.04;36.79;98841.47;4487265;32;20690;-82
2022/06/02 12:25:26;;;;;;;3.95;1.30;;;;;;;26.93;36.95;98841.94;4487578;32;20111;-82
2022/06/02 12:28:04;;;;;;;2.55;1.23;;;;;;;26.80;35.24;98856.13;4487325;32;20088;-81
2022/06/02 12:30:44;;;;;;;3.83;1.35;;;;;;;26.65;35.02;98856.09;4487227;32;20093;-81
2022/06/02 12:33:28;;;;;;;4.25;1.40;;;;;;;26.91;34.59;98849.41;4459949;32;20100;-81
2022/06/02 12:36:09;;;;;;;4.45;1.40;;;;;;;26.85;35.56;98859.09;4487179;32;20348;-82
2022/06/02 12:38:55;;;;;;;4.40;1.50;;;;;;;27.08;35.55;98839.22;4487307;32;20470;-82
2022/06/02 12:42:02;;;;;;;4.62;1.30;;;;;;;27.01;35.13;98852.66;4487110;32;20375;-81
2022/06/02 12:44:53;;;;;;;4.30;1.17;;;;;;;26.85;33.55;98853.69;4487390;32;20114;-82
2022/06/02 12:47:53;;;;;;;3.83;1.23;;;;;;;26.99;33.77;98856.59;4473054;32;20103;-82
2022/06/02 12:50:27;;;;;;;;;;;;;;;27.14;33.66;98848.44;4487647;32;20115;-81
2022/06/02 12:53:26;;;;;;;5.62;1.33;;;;;;;26.81;34.57;98857.81;4472855;32;19968;-82
2022/06/02 12:56:31;;;;;;;4.25;1.12;;;;;;;26.79;35.32;98865.25;4487026;32;20088;-82